Terminal Aerodrome Forecast
Issued by NWS

Home | Current Version | Previous Version | Text Only | Print | Product List | Glossary On
Versions: 1 2 3 4 5 6 7 8 9 10 11 12 13 14 15 16
000
FTUS43 KLSX 230500
TAFUIN
TAF
KUIN 230520Z 2306/2406 06005KT P6SM SCT150
     FM231500 13011KT P6SM BKN100
     FM232100 12014G21KT P6SM BKN150=

USA.gov is the U.S. government's official web portal to all federal, state and local government web resources and services.